createdAt,value
2022-12-13T00:00:56.244Z,85.82
2022-12-13T00:01:56.287Z,85.92
2022-12-13T00:02:56.209Z,86.03
2022-12-13T00:03:56.232Z,86.03
2022-12-13T00:04:56.197Z,86.03
2022-12-13T00:05:56.206Z,86.03
2022-12-13T00:06:56.185Z,85.92
2022-12-13T00:07:56.219Z,85.85
2022-12-13T00:08:56.157Z,85.85
2022-12-13T00:09:56.186Z,85.85
2022-12-13T00:10:56.125Z,85.82
2022-12-13T00:11:56.115Z,85.96
2022-12-13T00:12:56.117Z,85.85
2022-12-13T00:13:56.116Z,85.75
2022-12-13T00:14:56.086Z,85.85
2022-12-13T00:15:56.085Z,85.85
2022-12-13T00:16:56.131Z,85.96
2022-12-13T00:17:56.085Z,86.07
2022-12-13T00:18:56.047Z,86.07
2022-12-13T00:19:56.056Z,85.96
2022-12-13T00:20:56.046Z,85.96
2022-12-13T00:21:56.015Z,86.07
2022-12-13T00:22:56.023Z,86.17
2022-12-13T00:23:56.009Z,86.07
2022-12-13T00:24:56.023Z,86.07
2022-12-13T00:25:55.986Z,86.07
2022-12-13T00:26:56.004Z,86.07
2022-12-13T00:27:55.986Z,86.07
2022-12-13T00:28:55.944Z,86.07
2022-12-13T00:29:55.942Z,86.17
2022-12-13T00:30:55.951Z,86.28
2022-12-13T00:32:00.436Z,86.49
2022-12-13T00:32:56.915Z,86.70
2022-12-13T00:33:55.910Z,86.70
2022-12-13T00:34:55.894Z,86.70
2022-12-13T00:35:55.884Z,86.80
2022-12-13T00:36:55.875Z,86.91
2022-12-13T00:37:55.854Z,86.80
2022-12-13T00:38:55.844Z,86.80
2022-12-13T00:39:55.856Z,86.80
2022-12-13T00:40:55.824Z,86.80
2022-12-13T00:41:55.814Z,86.80
2022-12-13T00:42:55.806Z,87.02
2022-12-13T00:43:55.795Z,87.12
2022-12-13T00:44:55.799Z,87.23
2022-12-13T00:45:55.807Z,87.12
2022-12-13T00:46:55.775Z,86.91
2022-12-13T00:47:55.764Z,86.80
2022-12-13T00:48:55.756Z,86.70
2022-12-13T00:49:55.757Z,86.59
2022-12-13T00:50:55.721Z,86.80
2022-12-13T00:51:55.735Z,86.91
2022-12-13T00:52:55.715Z,87.02
2022-12-13T00:53:55.696Z,87.23
2022-12-13T00:54:55.695Z,87.44
2022-12-13T00:55:55.678Z,87.65
2022-12-13T00:56:55.685Z,87.54
2022-12-13T00:57:55.655Z,87.37
2022-12-13T00:58:55.663Z,87.37
2022-12-13T00:59:55.644Z,87.37
2022-12-13T01:00:55.691Z,87.48
2022-12-13T01:01:55.651Z,87.27
2022-12-13T01:02:55.658Z,87.16
2022-12-13T01:03:55.614Z,87.27
2022-12-13T01:04:55.595Z,87.27
2022-12-13T01:06:56.553Z,87.48
2022-12-13T01:07:55.645Z,87.69
2022-12-13T01:08:55.542Z,87.48
2022-12-13T01:09:55.544Z,87.48
2022-12-13T01:10:55.535Z,87.58
2022-12-13T01:11:55.542Z,87.58
2022-12-13T01:12:55.503Z,87.58
2022-12-13T01:13:55.501Z,87.90
2022-12-13T01:14:56.270Z,88.21
2022-12-13T01:15:55.484Z,88.32
2022-12-13T01:16:55.572Z,88.21
2022-12-13T01:17:55.453Z,88.11
2022-12-13T01:18:55.450Z,87.90
2022-12-13T01:19:55.453Z,87.48
2022-12-13T01:20:55.423Z,87.05
2022-12-13T01:21:55.434Z,86.84
2022-12-13T01:22:55.396Z,86.53
2022-12-13T01:23:55.405Z,86.63
2022-12-13T01:24:55.416Z,86.63
2022-12-13T01:25:55.374Z,86.53
2022-12-13T01:26:57.049Z,86.84
2022-12-13T01:27:55.372Z,86.84
2022-12-13T01:28:55.336Z,86.95
2022-12-13T01:29:55.363Z,87.05
2022-12-13T01:30:55.355Z,87.37
2022-12-13T01:31:55.323Z,87.79
2022-12-13T01:32:55.320Z,87.90
2022-12-13T01:33:55.306Z,87.79
2022-12-13T01:34:55.274Z,87.58
2022-12-13T01:35:55.283Z,87.41
2022-12-13T01:36:58.656Z,87.62
2022-12-13T01:37:55.253Z,87.73
2022-12-13T01:38:58.663Z,87.62
2022-12-13T01:39:58.564Z,87.30
2022-12-13T01:40:55.213Z,87.09
2022-12-13T01:41:55.222Z,87.09
2022-12-13T01:42:55.193Z,87.41
2022-12-13T01:43:55.192Z,87.73
2022-12-13T01:44:55.201Z,87.94
2022-12-13T01:45:55.260Z,88.15
2022-12-13T01:46:55.162Z,88.46
2022-12-13T01:47:55.153Z,88.89
2022-12-13T01:48:55.154Z,89.31
2022-12-13T01:49:55.132Z,89.42
2022-12-13T01:50:55.112Z,89.42
2022-12-13T01:51:55.104Z,89.52
2022-12-13T01:52:55.110Z,89.56
2022-12-13T01:53:55.109Z,89.63
2022-12-13T01:54:55.093Z,89.42
2022-12-13T01:55:56.074Z,89.42
2022-12-13T01:57:00.957Z,89.56
2022-12-13T01:57:56.061Z,89.77
2022-12-13T01:58:55.033Z,89.73
2022-12-13T01:59:55.044Z,89.84
2022-12-13T02:00:55.020Z,89.94
2022-12-13T02:01:55.010Z,90.05
2022-12-13T02:02:56.002Z,90.05
2022-12-13T02:03:55.001Z,90.26
2022-12-13T02:04:55.063Z,90.26
2022-12-13T02:05:54.972Z,90.47
2022-12-13T02:06:54.972Z,90.58
2022-12-13T02:07:55.017Z,90.37
2022-12-13T02:08:54.955Z,90.37
2022-12-13T02:09:57.100Z,90.58
2022-12-13T02:10:54.955Z,90.79
2022-12-13T02:11:54.923Z,90.79
2022-12-13T02:12:54.924Z,90.69
2022-12-13T02:13:54.901Z,90.37
2022-12-13T02:14:54.891Z,89.94
2022-12-13T02:15:55.931Z,89.73
2022-12-13T02:16:54.864Z,89.63
2022-12-13T02:17:54.865Z,89.63
2022-12-13T02:18:54.863Z,89.63
2022-12-13T02:19:54.843Z,89.52
2022-12-13T02:20:54.836Z,89.42
2022-12-13T02:21:54.823Z,89.52
2022-12-13T02:22:54.815Z,89.52
2022-12-13T02:23:54.793Z,89.42
2022-12-13T02:24:54.793Z,89.63
2022-12-13T02:25:54.785Z,89.73
2022-12-13T02:26:54.804Z,90.05
2022-12-13T02:28:00.460Z,90.37
2022-12-13T02:28:55.756Z,90.37
2022-12-13T02:29:54.762Z,90.37
2022-12-13T02:30:54.804Z,90.26
2022-12-13T02:31:54.723Z,89.84
2022-12-13T02:32:55.703Z,89.42
2022-12-13T02:33:54.720Z,89.00
2022-12-13T02:34:54.672Z,88.89
2022-12-13T02:35:54.707Z,88.89
2022-12-13T02:36:54.675Z,89.00
2022-12-13T02:37:54.660Z,89.10
2022-12-13T02:38:54.647Z,89.20
2022-12-13T02:39:54.617Z,89.42
2022-12-13T02:40:54.650Z,89.42
2022-12-13T02:41:55.611Z,89.42
2022-12-13T02:42:54.599Z,89.52
2022-12-13T02:44:01.265Z,89.73
2022-12-13T02:44:55.587Z,90.05
2022-12-13T02:45:54.625Z,90.16
2022-12-13T02:46:54.590Z,90.26
2022-12-13T02:47:54.550Z,90.26
2022-12-13T02:48:54.532Z,90.26
2022-12-13T02:49:54.523Z,90.37
2022-12-13T02:50:54.527Z,90.26
2022-12-13T02:51:54.516Z,90.05
2022-12-13T02:52:54.529Z,89.94
2022-12-13T02:53:54.493Z,90.05
2022-12-13T02:54:54.490Z,89.84
2022-12-13T02:55:54.470Z,90.05
2022-12-13T02:56:54.458Z,90.16
2022-12-13T02:57:54.457Z,90.37
2022-12-13T02:58:54.448Z,90.52
2022-12-13T02:59:54.416Z,90.47
2022-12-13T03:00:54.440Z,90.37
2022-12-13T03:01:54.437Z,90.37
2022-12-13T03:02:57.040Z,90.37
2022-12-13T03:03:54.409Z,90.47
2022-12-13T03:04:54.379Z,90.47
2022-12-13T03:05:54.368Z,90.47
2022-12-13T03:06:54.347Z,90.37
2022-12-13T03:07:54.383Z,90.26
2022-12-13T03:08:54.348Z,90.30
2022-12-13T03:09:54.347Z,90.41
2022-12-13T03:10:54.347Z,90.52
2022-12-13T03:11:54.289Z,90.62
2022-12-13T03:12:54.293Z,90.72
2022-12-13T03:13:54.268Z,90.62
2022-12-13T03:14:54.295Z,90.72
2022-12-13T03:15:54.324Z,90.52
2022-12-13T03:16:54.254Z,90.30
2022-12-13T03:17:54.266Z,90.41
2022-12-13T03:18:54.240Z,90.41
2022-12-13T03:19:54.218Z,90.62
2022-12-13T03:20:54.226Z,90.72
2022-12-13T03:21:54.217Z,90.72
2022-12-13T03:22:54.197Z,90.37
2022-12-13T03:23:54.188Z,90.16
2022-12-13T03:24:54.167Z,89.94
2022-12-13T03:25:54.158Z,89.94
2022-12-13T03:26:54.147Z,89.73
2022-12-13T03:27:54.158Z,89.63
2022-12-13T03:28:54.151Z,89.63
2022-12-13T03:29:54.123Z,89.63
2022-12-13T03:30:54.144Z,89.84
2022-12-13T03:31:54.089Z,90.26
2022-12-13T03:32:54.097Z,90.41
2022-12-13T03:33:54.097Z,90.41
2022-12-13T03:35:12.284Z,90.52
2022-12-13T03:35:55.050Z,90.52
2022-12-13T03:36:54.058Z,90.37
2022-12-13T03:37:54.048Z,90.16
2022-12-13T03:38:54.038Z,90.20
2022-12-13T03:39:54.008Z,90.16
2022-12-13T03:40:54.015Z,90.05
2022-12-13T03:41:54.006Z,89.98
2022-12-13T03:42:54.006Z,89.98
2022-12-13T03:43:53.998Z,90.09
2022-12-13T03:44:53.967Z,90.30
2022-12-13T03:45:53.959Z,90.41
2022-12-13T03:46:53.980Z,90.62
2022-12-13T03:47:53.947Z,90.62
2022-12-13T03:48:53.947Z,90.83
2022-12-13T03:49:54.321Z,90.83
2022-12-13T03:50:53.935Z,90.83
2022-12-13T03:51:53.907Z,90.83
2022-12-13T03:52:53.887Z,90.83
2022-12-13T03:53:53.905Z,90.72
2022-12-13T03:54:53.857Z,90.83
2022-12-13T03:55:53.857Z,91.04
2022-12-13T03:56:53.847Z,91.14
2022-12-13T03:57:53.836Z,91.14
2022-12-13T03:58:53.860Z,91.14
2022-12-13T03:59:53.814Z,91.04
2022-12-13T04:00:53.817Z,90.72
2022-12-13T04:01:53.867Z,90.62
2022-12-13T04:02:53.902Z,90.52
2022-12-13T04:03:53.797Z,90.41
2022-12-13T04:04:53.766Z,90.52
2022-12-13T04:05:53.748Z,90.52
2022-12-13T04:06:53.737Z,90.41
2022-12-13T04:07:53.780Z,90.30
2022-12-13T04:08:54.806Z,90.09
2022-12-13T04:09:53.725Z,89.98
2022-12-13T04:10:53.720Z,90.09
2022-12-13T04:11:53.732Z,90.30
2022-12-13T04:12:53.675Z,90.52
2022-12-13T04:13:54.668Z,90.41
2022-12-13T04:14:53.665Z,90.20
2022-12-13T04:15:53.672Z,90.09
2022-12-13T04:16:53.667Z,90.09
2022-12-13T04:17:53.646Z,90.30
2022-12-13T04:18:53.622Z,90.41
2022-12-13T04:19:53.608Z,90.41
2022-12-13T04:20:53.604Z,90.52
2022-12-13T04:21:53.603Z,90.41
2022-12-13T04:22:53.615Z,90.41
2022-12-13T04:23:53.594Z,90.52
2022-12-13T04:24:53.565Z,90.52
2022-12-13T04:25:53.555Z,90.41
2022-12-13T04:26:53.536Z,90.52
2022-12-13T04:27:53.548Z,90.52
2022-12-13T04:28:54.805Z,90.52
2022-12-13T04:29:53.521Z,90.52
2022-12-13T04:30:54.196Z,90.62
2022-12-13T04:31:53.554Z,90.41
2022-12-13T04:32:53.475Z,90.20
2022-12-13T04:33:53.484Z,89.98
2022-12-13T04:34:53.485Z,89.88
2022-12-13T04:35:54.463Z,89.98
2022-12-13T04:36:53.452Z,89.67
2022-12-13T04:37:53.440Z,89.35
2022-12-13T04:38:53.425Z,89.46
2022-12-13T04:39:53.408Z,89.56
2022-12-13T04:40:54.394Z,89.56
2022-12-13T04:41:53.386Z,89.46
2022-12-13T04:42:54.024Z,89.46
2022-12-13T04:43:53.393Z,89.46
2022-12-13T04:44:53.354Z,89.46
2022-12-13T04:45:53.390Z,89.35
2022-12-13T04:46:53.335Z,89.46
2022-12-13T04:47:54.344Z,89.56
2022-12-13T04:48:53.334Z,89.56
2022-12-13T04:49:53.314Z,89.50
2022-12-13T04:50:53.314Z,89.67
2022-12-13T04:51:58.923Z,89.56
2022-12-13T04:52:54.277Z,89.03
2022-12-13T04:53:53.273Z,88.93
2022-12-13T04:54:55.621Z,88.93
2022-12-13T04:55:53.264Z,88.93
2022-12-13T04:56:53.264Z,88.93
2022-12-13T04:57:53.224Z,89.03
2022-12-13T04:58:53.222Z,89.03
2022-12-13T04:59:53.240Z,88.93
2022-12-13T05:00:53.548Z,89.03
2022-12-13T05:01:53.298Z,89.18
2022-12-13T05:02:53.249Z,89.18
2022-12-13T05:03:53.183Z,89.14
2022-12-13T05:04:54.200Z,89.29
2022-12-13T05:05:53.162Z,89.18
2022-12-13T05:06:53.133Z,89.29
2022-12-13T05:07:53.144Z,89.50
2022-12-13T05:08:53.124Z,89.61
2022-12-13T05:09:53.104Z,89.71
2022-12-13T05:10:53.095Z,89.81
2022-12-13T05:11:53.084Z,90.13
2022-12-13T05:12:54.084Z,90.13
2022-12-13T05:13:53.084Z,90.23
2022-12-13T05:14:53.077Z,90.23
2022-12-13T05:15:55.265Z,90.13
2022-12-13T05:16:53.105Z,90.03
2022-12-13T05:17:53.044Z,89.92
2022-12-13T05:18:53.010Z,89.92
2022-12-13T05:19:53.012Z,89.67
2022-12-13T05:20:53.011Z,89.56
2022-12-13T05:21:52.993Z,89.35
2022-12-13T05:22:53.013Z,89.18
2022-12-13T05:23:52.973Z,89.39
2022-12-13T05:24:52.957Z,89.29
2022-12-13T05:25:52.981Z,89.29
2022-12-13T05:26:52.942Z,89.07
2022-12-13T05:27:57.093Z,89.07
2022-12-13T05:28:52.962Z,88.86
2022-12-13T05:30:02.345Z,88.97
2022-12-13T05:30:53.911Z,89.07
2022-12-13T05:31:52.970Z,88.86
2022-12-13T05:32:53.235Z,88.97
2022-12-13T05:33:52.922Z,88.86
2022-12-13T05:34:52.912Z,88.86
2022-12-13T05:35:57.678Z,89.07
2022-12-13T05:36:53.832Z,88.86
2022-12-13T05:37:53.202Z,88.97
2022-12-13T05:38:52.812Z,88.65
2022-12-13T05:39:52.823Z,88.65
2022-12-13T05:40:52.801Z,88.65
2022-12-13T05:41:52.805Z,88.76
2022-12-13T05:43:00.578Z,88.86
2022-12-13T05:43:53.782Z,88.76
2022-12-13T05:44:52.750Z,88.65
2022-12-13T05:45:52.772Z,88.44
2022-12-13T05:46:53.453Z,88.34
2022-12-13T05:47:52.743Z,88.23
2022-12-13T05:48:53.829Z,88.54
2022-12-13T05:49:52.712Z,88.65
2022-12-13T05:51:11.152Z,88.76
2022-12-13T05:51:53.701Z,88.97
2022-12-13T05:52:53.392Z,88.97
2022-12-13T05:53:53.490Z,88.97
2022-12-13T05:54:52.737Z,88.86
2022-12-13T05:55:52.700Z,88.54
2022-12-13T05:56:56.846Z,88.44
2022-12-13T05:57:52.990Z,88.44
2022-12-13T05:58:53.606Z,88.34
2022-12-13T05:59:52.620Z,88.12
2022-12-13T06:00:54.088Z,88.02
2022-12-13T06:01:52.732Z,88.23
2022-12-13T06:02:52.846Z,88.34
2022-12-13T06:03:52.588Z,88.65
2022-12-13T06:04:52.570Z,88.76
2022-12-13T06:05:52.552Z,88.76
2022-12-13T06:06:52.573Z,88.76
2022-12-13T06:07:56.789Z,88.86
2022-12-13T06:08:53.554Z,89.07
2022-12-13T06:09:52.524Z,89.18
2022-12-13T06:10:53.505Z,89.29
2022-12-13T06:12:01.099Z,89.29
2022-12-13T06:12:53.482Z,89.29
2022-12-13T06:13:53.464Z,88.97
2022-12-13T06:14:53.451Z,88.76
2022-12-13T06:16:01.489Z,88.65
2022-12-13T06:16:53.514Z,88.97
2022-12-13T06:17:52.444Z,89.07
2022-12-13T06:18:57.484Z,89.18
2022-12-13T06:19:53.410Z,89.29
2022-12-13T06:20:52.410Z,89.50
2022-12-13T06:21:52.381Z,89.39
2022-12-13T06:22:52.370Z,89.18
2022-12-13T06:23:52.389Z,89.07
2022-12-13T06:24:52.380Z,89.07
2022-12-13T06:25:52.351Z,89.18
2022-12-13T06:26:52.319Z,89.18
2022-12-13T06:27:52.321Z,89.07
2022-12-13T06:28:52.309Z,88.97
2022-12-13T06:29:52.320Z,88.76
2022-12-13T06:30:52.359Z,88.65
2022-12-13T06:31:52.282Z,88.65
2022-12-13T06:32:52.289Z,88.76
2022-12-13T06:33:52.280Z,88.76
2022-12-13T06:34:52.250Z,88.54
2022-12-13T06:35:52.243Z,88.34
2022-12-13T06:36:52.260Z,88.12
2022-12-13T06:37:52.238Z,87.81
2022-12-13T06:38:52.219Z,87.70
2022-12-13T06:39:52.220Z,87.92
2022-12-13T06:40:52.179Z,88.12
2022-12-13T06:41:52.197Z,88.23
2022-12-13T06:42:52.188Z,88.34
2022-12-13T06:43:52.170Z,88.34
2022-12-13T06:44:55.824Z,88.44
2022-12-13T06:45:52.173Z,88.54
2022-12-13T06:46:52.139Z,88.54
2022-12-13T06:47:53.132Z,88.65
2022-12-13T06:48:52.112Z,88.76
2022-12-13T06:49:52.117Z,88.65
2022-12-13T06:50:52.140Z,88.51
2022-12-13T06:51:52.086Z,88.40
2022-12-13T06:52:52.077Z,88.61
2022-12-13T06:53:52.049Z,88.71
2022-12-13T06:54:56.809Z,88.76
2022-12-13T06:55:53.049Z,88.71
2022-12-13T06:56:52.032Z,88.61
2022-12-13T06:57:52.045Z,88.54
2022-12-13T06:58:52.019Z,88.40
2022-12-13T06:59:52.011Z,88.40
2022-12-13T07:00:51.989Z,88.29
2022-12-13T07:01:52.059Z,88.09
2022-12-13T07:02:51.987Z,87.98
2022-12-13T07:03:51.955Z,87.98
2022-12-13T07:04:51.958Z,87.77
2022-12-13T07:05:56.766Z,87.45
2022-12-13T07:06:52.919Z,87.45
2022-12-13T07:07:52.008Z,87.38
2022-12-13T07:08:51.901Z,87.55
2022-12-13T07:09:51.928Z,87.70
2022-12-13T07:10:51.910Z,87.81
2022-12-13T07:11:52.616Z,87.81
2022-12-13T07:12:51.870Z,87.81
2022-12-13T07:13:51.868Z,87.70
2022-12-13T07:14:51.884Z,87.70
2022-12-13T07:15:51.862Z,87.81
2022-12-13T07:16:51.830Z,88.12
2022-12-13T07:17:51.828Z,88.02
2022-12-13T07:18:51.799Z,87.81
2022-12-13T07:19:52.798Z,87.92
2022-12-13T07:20:51.807Z,88.02
2022-12-13T07:21:51.883Z,88.23
2022-12-13T07:22:56.815Z,88.23
2022-12-13T07:23:54.926Z,88.44
2022-12-13T07:24:51.747Z,88.76
2022-12-13T07:25:51.755Z,88.76
2022-12-13T07:26:51.718Z,88.86
2022-12-13T07:27:51.735Z,89.07
2022-12-13T07:28:55.346Z,89.07
2022-12-13T07:29:51.708Z,89.18
2022-12-13T07:30:51.731Z,89.14
2022-12-13T07:31:51.691Z,89.25
2022-12-13T07:32:51.677Z,89.35
2022-12-13T07:33:51.675Z,89.35
2022-12-13T07:34:51.667Z,89.35
2022-12-13T07:35:55.074Z,89.46
2022-12-13T07:36:51.627Z,89.56
2022-12-13T07:37:51.618Z,89.56
2022-12-13T07:38:51.617Z,89.56
2022-12-13T07:39:51.615Z,89.35
2022-12-13T07:40:51.639Z,89.25
2022-12-13T07:41:51.579Z,89.14
2022-12-13T07:42:51.597Z,89.14
2022-12-13T07:43:55.232Z,89.14
2022-12-13T07:44:51.548Z,88.93
2022-12-13T07:45:51.545Z,88.82
2022-12-13T07:46:51.717Z,88.93
2022-12-13T07:47:51.527Z,88.82
2022-12-13T07:48:51.508Z,88.57
2022-12-13T07:49:51.516Z,88.46
2022-12-13T07:50:54.643Z,88.46
2022-12-13T07:51:51.478Z,88.46
2022-12-13T07:52:51.487Z,88.46
2022-12-13T07:53:51.478Z,88.26
2022-12-13T07:54:51.485Z,88.26
2022-12-13T07:55:51.456Z,88.04
2022-12-13T07:56:51.427Z,88.04
2022-12-13T07:57:51.418Z,87.94
2022-12-13T07:58:51.410Z,88.15
2022-12-13T07:59:51.425Z,88.26
2022-12-13T08:00:51.377Z,88.46
2022-12-13T08:01:51.396Z,88.57
2022-12-13T08:02:51.392Z,88.46
2022-12-13T08:03:51.386Z,88.46
2022-12-13T08:04:54.849Z,88.46
2022-12-13T08:05:51.374Z,88.26
2022-12-13T08:06:52.327Z,88.26
2022-12-13T08:07:51.365Z,88.36
2022-12-13T08:08:51.342Z,88.46
2022-12-13T08:09:53.182Z,88.46
2022-12-13T08:10:51.277Z,88.46
2022-12-13T08:11:51.269Z,88.43
2022-12-13T08:12:51.276Z,88.43
2022-12-13T08:13:51.267Z,88.32
2022-12-13T08:14:53.098Z,88.32
2022-12-13T08:15:51.306Z,88.21
2022-12-13T08:16:51.254Z,88.21
2022-12-13T08:17:51.225Z,88.21
2022-12-13T08:18:51.217Z,88.21
2022-12-13T08:19:51.199Z,88.32
2022-12-13T08:20:51.175Z,88.64
2022-12-13T08:21:56.256Z,88.75
2022-12-13T08:22:52.201Z,88.75
2022-12-13T08:23:51.156Z,88.70
2022-12-13T08:24:51.155Z,88.70
2022-12-13T08:25:51.146Z,88.81
2022-12-13T08:26:51.128Z,88.70
2022-12-13T08:27:51.117Z,88.60
2022-12-13T08:28:51.118Z,88.60
2022-12-13T08:29:51.086Z,88.60
2022-12-13T08:30:51.096Z,88.60
2022-12-13T08:31:51.100Z,88.49
2022-12-13T08:32:51.065Z,88.39
2022-12-13T08:33:51.045Z,88.45
2022-12-13T08:34:51.062Z,88.56
2022-12-13T08:35:51.036Z,88.77
2022-12-13T08:36:51.018Z,88.87
2022-12-13T08:37:51.004Z,88.66
2022-12-13T08:38:50.995Z,88.56
2022-12-13T08:39:50.995Z,88.56
2022-12-13T08:40:51.552Z,88.56
2022-12-13T08:41:50.963Z,88.45
2022-12-13T08:42:50.974Z,88.45
2022-12-13T08:43:50.944Z,88.56
2022-12-13T08:44:51.338Z,88.56
2022-12-13T08:45:50.925Z,88.66
2022-12-13T08:46:51.041Z,88.73
2022-12-13T08:47:50.906Z,88.62
2022-12-13T08:48:50.930Z,88.62
2022-12-13T08:49:50.933Z,88.41
2022-12-13T08:50:50.888Z,88.20
2022-12-13T08:51:50.896Z,88.20
2022-12-13T08:52:50.873Z,88.20
2022-12-13T08:53:50.835Z,88.20
2022-12-13T08:54:50.844Z,88.20
2022-12-13T08:55:50.850Z,88.31
2022-12-13T08:56:50.814Z,88.41
2022-12-13T08:57:50.814Z,88.10
2022-12-13T08:58:50.805Z,87.88
2022-12-13T08:59:50.784Z,87.88
2022-12-13T09:00:50.832Z,87.78
2022-12-13T09:01:54.242Z,87.78
2022-12-13T09:02:51.855Z,87.88
2022-12-13T09:03:50.754Z,87.78
2022-12-13T09:04:50.755Z,87.46
2022-12-13T09:05:50.755Z,87.46
2022-12-13T09:06:50.719Z,87.68
2022-12-13T09:07:50.746Z,87.85
2022-12-13T09:08:51.783Z,87.85
2022-12-13T09:09:54.702Z,87.74
2022-12-13T09:10:50.683Z,87.85
2022-12-13T09:11:51.695Z,87.95
2022-12-13T09:12:51.655Z,87.74
2022-12-13T09:13:50.634Z,87.74
2022-12-13T09:14:50.646Z,87.85
2022-12-13T09:15:50.669Z,87.85
2022-12-13T09:16:51.859Z,87.70
2022-12-13T09:17:52.345Z,87.70
2022-12-13T09:18:55.118Z,87.49
2022-12-13T09:19:51.641Z,87.49
2022-12-13T09:20:51.639Z,87.70
2022-12-13T09:21:50.567Z,87.28
2022-12-13T09:22:50.572Z,86.93
2022-12-13T09:23:50.536Z,86.82
2022-12-13T09:24:50.544Z,86.71
2022-12-13T09:25:52.757Z,86.61
2022-12-13T09:26:50.512Z,86.51
2022-12-13T09:27:51.494Z,86.08
2022-12-13T09:28:50.494Z,85.77
2022-12-13T09:29:50.492Z,85.62
2022-12-13T09:30:50.485Z,85.62
2022-12-13T09:31:53.240Z,85.62
2022-12-13T09:32:50.474Z,85.31
2022-12-13T09:33:50.444Z,84.67
2022-12-13T09:34:50.457Z,84.36
2022-12-13T09:35:50.430Z,84.36
2022-12-13T09:36:50.404Z,84.36
2022-12-13T09:37:50.413Z,83.90
2022-12-13T09:38:50.383Z,83.59
2022-12-13T09:39:54.993Z,83.48
2022-12-13T09:40:58.219Z,83.27
2022-12-13T09:41:51.361Z,83.17
2022-12-13T09:43:04.573Z,83.17
2022-12-13T09:43:51.339Z,83.27
2022-12-13T09:45:01.025Z,83.23
2022-12-13T09:45:51.373Z,82.92
2022-12-13T09:46:50.393Z,82.71
2022-12-13T09:47:50.292Z,82.81
2022-12-13T09:48:50.304Z,82.29
2022-12-13T09:49:52.333Z,82.07
2022-12-13T09:50:58.490Z,81.97
2022-12-13T09:52:09.975Z,81.65
2022-12-13T09:52:51.258Z,81.65
2022-12-13T09:53:50.243Z,81.76
2022-12-13T09:54:50.247Z,81.55
2022-12-13T09:55:50.225Z,81.13
2022-12-13T09:56:50.223Z,81.30
2022-12-13T09:57:50.194Z,81.73
2022-12-13T09:58:50.202Z,81.30
2022-12-13T09:59:50.179Z,81.09
2022-12-13T10:00:50.213Z,81.20
2022-12-13T10:01:50.188Z,81.20
2022-12-13T10:02:50.151Z,81.20
2022-12-13T10:03:50.145Z,81.05
2022-12-13T10:04:50.133Z,81.37
2022-12-13T10:05:50.123Z,81.27
2022-12-13T10:06:50.103Z,81.05
2022-12-13T10:07:50.132Z,80.43
2022-12-13T10:08:50.099Z,80.32
2022-12-13T10:09:51.065Z,80.64
2022-12-13T10:10:50.081Z,80.60
2022-12-13T10:11:50.831Z,80.71
2022-12-13T10:12:50.042Z,80.08
2022-12-13T10:13:50.034Z,80.18
2022-12-13T10:14:50.032Z,80.49
2022-12-13T10:15:50.041Z,80.67
2022-12-13T10:16:50.078Z,80.57
2022-12-13T10:17:55.155Z,80.67
2022-12-13T10:18:50.975Z,80.04
2022-12-13T10:19:49.963Z,79.41
2022-12-13T10:20:49.996Z,78.99
2022-12-13T10:21:49.953Z,79.10
2022-12-13T10:23:14.991Z,79.20
2022-12-13T10:24:23.109Z,79.10
2022-12-13T10:24:50.964Z,79.16
2022-12-13T10:25:50.784Z,78.96
2022-12-13T10:26:49.959Z,79.16
2022-12-13T10:27:49.902Z,78.96
2022-12-13T10:28:49.912Z,78.64
2022-12-13T10:29:49.872Z,78.22
2022-12-13T10:30:49.883Z,78.33
2022-12-13T10:31:49.881Z,78.11
2022-12-13T10:32:49.853Z,77.76
2022-12-13T10:33:49.845Z,78.19
2022-12-13T10:34:49.834Z,77.56
2022-12-13T10:35:49.802Z,77.56
2022-12-13T10:36:50.793Z,77.66
2022-12-13T10:37:49.802Z,77.87
2022-12-13T10:38:49.794Z,77.66
2022-12-13T10:39:49.784Z,77.42
2022-12-13T10:40:49.780Z,77.00
2022-12-13T10:41:49.750Z,76.79
2022-12-13T10:42:49.733Z,77.00
2022-12-13T10:43:49.713Z,77.00
2022-12-13T10:44:49.721Z,77.31
2022-12-13T10:45:49.795Z,76.96
2022-12-13T10:46:49.712Z,76.23
2022-12-13T10:47:49.713Z,75.81
2022-12-13T10:48:49.692Z,75.81
2022-12-13T10:49:49.662Z,75.18
2022-12-13T10:50:49.682Z,74.97
2022-12-13T10:51:49.638Z,75.49
2022-12-13T10:52:49.663Z,76.02
2022-12-13T10:53:49.631Z,75.81
2022-12-13T10:54:49.634Z,75.67
2022-12-13T10:55:49.592Z,75.67
2022-12-13T10:56:49.610Z,75.88
2022-12-13T10:57:49.592Z,75.25
2022-12-13T10:58:49.571Z,75.25
2022-12-13T10:59:49.564Z,75.25
2022-12-13T11:00:49.664Z,75.25
2022-12-13T11:01:49.550Z,75.32
2022-12-13T11:02:49.523Z,75.43
2022-12-13T11:03:49.552Z,75.43
2022-12-13T11:04:49.506Z,75.43
2022-12-13T11:05:49.503Z,75.53
2022-12-13T11:06:49.503Z,74.90
2022-12-13T11:07:49.522Z,74.49
2022-12-13T11:08:49.474Z,74.17
2022-12-13T11:09:52.736Z,74.35
2022-12-13T11:10:49.452Z,73.93
2022-12-13T11:11:49.431Z,73.72
2022-12-13T11:12:49.432Z,73.72
2022-12-13T11:13:49.454Z,73.93
2022-12-13T11:14:49.410Z,74.00
2022-12-13T11:15:49.392Z,74.21
2022-12-13T11:16:49.446Z,74.31
2022-12-13T11:17:49.380Z,74.21
2022-12-13T11:18:49.413Z,74.10
2022-12-13T11:19:49.376Z,74.18
2022-12-13T11:20:54.088Z,74.28
2022-12-13T11:21:50.331Z,74.38
2022-12-13T11:22:49.332Z,74.14
2022-12-13T11:23:49.324Z,73.10
2022-12-13T11:24:49.317Z,72.13
2022-12-13T11:25:49.291Z,71.78
2022-12-13T11:26:53.794Z,71.43
2022-12-13T11:27:49.281Z,70.78
2022-12-13T11:28:49.261Z,70.25
2022-12-13T11:29:49.262Z,69.70
2022-12-13T11:30:49.232Z,69.28
2022-12-13T11:31:49.325Z,69.63
2022-12-13T11:32:49.233Z,69.31
2022-12-13T11:33:49.287Z,69.10
2022-12-13T11:34:49.192Z,69.10
2022-12-13T11:35:49.181Z,69.63
2022-12-13T11:36:49.208Z,69.53
2022-12-13T11:37:51.797Z,69.42
2022-12-13T11:38:49.232Z,69.18
2022-12-13T11:39:49.257Z,68.21
2022-12-13T11:40:49.140Z,67.48
2022-12-13T11:41:49.141Z,67.76
2022-12-13T11:42:49.159Z,67.11
2022-12-13T11:43:49.112Z,66.59
2022-12-13T11:44:50.135Z,66.35
2022-12-13T11:45:49.137Z,65.52
2022-12-13T11:46:49.815Z,65.48
2022-12-13T11:47:49.083Z,65.66
2022-12-13T11:48:49.092Z,65.11
2022-12-13T11:49:49.063Z,64.90
2022-12-13T11:50:49.077Z,64.59
2022-12-13T11:51:49.042Z,64.49
2022-12-13T11:52:49.032Z,64.59
2022-12-13T11:53:49.031Z,64.56
2022-12-13T11:54:49.012Z,63.81
2022-12-13T11:55:49.000Z,63.50
2022-12-13T11:56:48.978Z,63.37
2022-12-13T11:57:48.972Z,63.16
2022-12-13T11:59:08.569Z,62.64
2022-12-13T11:59:49.950Z,62.57
2022-12-13T12:00:48.926Z,62.98
2022-12-13T12:01:51.695Z,63.11
2022-12-13T12:02:48.963Z,63.73
2022-12-13T12:03:48.922Z,63.84
2022-12-13T12:04:48.933Z,63.63
2022-12-13T12:05:48.873Z,63.84
2022-12-13T12:06:49.869Z,63.42
2022-12-13T12:08:20.994Z,63.01
2022-12-13T12:08:50.256Z,63.11
2022-12-13T12:09:48.872Z,63.04
2022-12-13T12:10:50.405Z,62.62
2022-12-13T12:11:48.814Z,62.67
2022-12-13T12:12:48.823Z,62.43
2022-12-13T12:13:51.378Z,61.99
2022-12-13T12:14:48.782Z,61.86
2022-12-13T12:15:48.830Z,60.58
2022-12-13T12:16:49.762Z,60.38
2022-12-13T12:17:48.753Z,60.48
2022-12-13T12:18:48.755Z,60.48
2022-12-13T12:19:48.732Z,60.51
2022-12-13T12:20:48.763Z,60.72
2022-12-13T12:22:13.223Z,60.58
2022-12-13T12:22:49.713Z,60.38
2022-12-13T12:23:52.637Z,59.96
2022-12-13T12:24:48.674Z,59.60
2022-12-13T12:25:48.691Z,59.39
2022-12-13T12:26:48.654Z,58.84
2022-12-13T12:27:48.660Z,58.09
2022-12-13T12:28:48.646Z,57.58
2022-12-13T12:29:48.625Z,57.24
2022-12-13T12:30:48.671Z,57.48
2022-12-13T12:31:51.309Z,57.27
2022-12-13T12:32:48.603Z,57.60
2022-12-13T12:33:48.604Z,57.84
2022-12-13T12:34:48.583Z,58.25
2022-12-13T12:35:48.591Z,58.56
2022-12-13T12:36:48.572Z,58.62
2022-12-13T12:37:48.561Z,59.27
2022-12-13T12:38:48.534Z,60.10
2022-12-13T12:39:48.539Z,59.68
2022-12-13T12:41:49.494Z,60.22
2022-12-13T12:43:14.363Z,60.64
2022-12-13T12:43:49.493Z,60.64
2022-12-13T12:44:48.462Z,60.57
2022-12-13T12:45:56.513Z,60.36
2022-12-13T12:48:41.238Z,61.40
2022-12-13T12:48:58.883Z,61.29
2022-12-13T12:49:49.471Z,61.08
2022-12-13T12:50:48.425Z,60.77
2022-12-13T12:51:48.404Z,60.80
2022-12-13T12:52:48.395Z,61.63
2022-12-13T12:53:48.385Z,61.74
2022-12-13T12:54:48.384Z,61.29
2022-12-13T12:55:48.358Z,60.67